Time;durP1;ratioP1;P1;durP2;ratioP2;P2;SDS_P1;SDS_P2;PMS_P1;PMS_P2;Temp;Humidity;BMP_temperature;BMP_pressure;BME280_temperature;BME280_humidity;BME280_pressure;Samples;Min_cycle;Max_cycle;Signal;HPM_P1;HPM_P2
2022/04/08 00:00:39;;;;;;;;;;;8.80;99.90;;;;;;5115159;28;19907;-45
2022/04/08 00:03:06;;;;;;;;;;;8.80;99.90;;;;;;5114969;28;20282;-43
2022/04/08 00:05:32;;;;;;;;;;;8.80;99.90;;;;;;5115173;28;19964;-43
2022/04/08 00:07:57;;;;;;;;;;;8.80;99.90;;;;;;5115276;28;19915;-43
2022/04/08 00:10:23;;;;;;;;;;;8.80;99.90;;;;;;5114772;28;20417;-44
2022/04/08 00:12:48;;;;;;;;;;;8.80;99.90;;;;;;5114744;28;20002;-46
2022/04/08 00:15:14;;;;;;;;;;;8.80;99.90;;;;;;5115293;28;19981;-45
2022/04/08 00:17:39;;;;;;;;;;;8.80;99.90;;;;;;5114729;28;19908;-43
2022/04/08 00:20:05;;;;;;;;;;;8.80;99.90;;;;;;5113395;28;19908;-46
2022/04/08 00:22:31;;;;;;;;;;;8.70;99.90;;;;;;5113481;28;19908;-42
2022/04/08 00:24:57;;;;;;;;;;;8.80;99.90;;;;;;5113506;28;19908;-46
2022/04/08 00:27:23;;;;;;;;;;;8.80;99.90;;;;;;5114168;28;20222;-43
2022/04/08 00:29:48;;;;;;;;;;;8.80;99.90;;;;;;5114089;28;19912;-42
2022/04/08 00:32:14;;;;;;;;;;;8.90;99.90;;;;;;5114737;28;19924;-43
2022/04/08 00:34:39;;;;;;;;;;;8.80;99.90;;;;;;5114424;28;19968;-44
2022/04/08 00:37:05;;;;;;;;;;;8.90;99.90;;;;;;5114379;28;20327;-43
2022/04/08 00:39:30;;;;;;;;;;;8.80;99.90;;;;;;5114318;28;19914;-43
2022/04/08 00:41:58;;;;;;;;;;;8.80;99.90;;;;;;5114776;28;19908;-44
2022/04/08 00:44:24;;;;;;;;;;;8.80;99.90;;;;;;5114374;28;19916;-43
2022/04/08 00:46:50;;;;;;;;;;;8.80;99.90;;;;;;5114362;28;20391;-45
2022/04/08 00:49:15;;;;;;;;;;;8.80;99.90;;;;;;5114399;28;19919;-45
2022/04/08 00:51:41;;;;;;;;;;;8.80;99.90;;;;;;5114376;28;20373;-46
2022/04/08 00:54:08;;;;;;;;;;;8.80;99.90;;;;;;5114384;28;20029;-45
2022/04/08 00:56:35;;;;;;;;;;;8.70;99.90;;;;;;5114355;28;19919;-43
2022/04/08 00:59:00;;;;;;;;;;;8.60;99.90;;;;;;5114039;28;19960;-43
2022/04/08 01:01:26;;;;;;;;;;;8.60;99.90;;;;;;5114250;28;20010;-43
2022/04/08 01:03:52;;;;;;;;;;;8.60;99.90;;;;;;5114294;28;19908;-43
2022/04/08 01:06:20;;;;;;;;;;;8.50;99.90;;;;;;5114278;28;19908;-44
2022/04/08 01:08:46;;;;;;;;;;;8.50;99.90;;;;;;5114116;28;19912;-44
2022/04/08 01:11:12;;;;;;;;;;;8.40;99.90;;;;;;5114219;28;19982;-43
2022/04/08 01:13:38;;;;;;;;;;;8.40;99.90;;;;;;5114153;28;20379;-42
2022/04/08 01:16:07;;;;;;;;;;;8.40;99.90;;;;;;5114548;28;19927;-43
2022/04/08 01:18:32;;;;;;;;;;;8.40;99.90;;;;;;5114525;28;19957;-46
2022/04/08 01:20:58;;;;;;;;;;;8.40;99.90;;;;;;5113839;28;19908;-45
2022/04/08 01:23:23;;;;;;;;;;;8.30;99.90;;;;;;5114146;28;19915;-45
2022/04/08 01:25:49;;;;;;;;;;;8.30;99.90;;;;;;5114144;28;20266;-45
2022/04/08 01:28:14;;;;;;;;;;;8.20;99.90;;;;;;5114108;28;19919;-45
2022/04/08 01:30:40;;;;;;;;;;;8.20;99.90;;;;;;5114298;28;20316;-44
2022/04/08 01:33:06;;;;;;;;;;;8.20;99.90;;;;;;5114164;28;19920;-43
2022/04/08 01:35:31;;;;;;;;;;;8.10;99.90;;;;;;5113565;28;19915;-44
2022/04/08 01:37:57;;;;;;;;;;;8.20;99.90;;;;;;5113718;28;20323;-47
2022/04/08 01:40:22;;;;;;;;;;;8.20;99.90;;;;;;5116189;28;20343;-45
2022/04/08 01:42:48;;;;;;;;;;;8.10;99.90;;;;;;5117953;28;19907;-42
2022/04/08 01:45:14;;;;;;;;;;;8.10;99.90;;;;;;5116683;28;19919;-44
2022/04/08 01:47:39;;;;;;;;;;;8.00;99.90;;;;;;5117672;28;20006;-45
2022/04/08 01:50:05;;;;;;;;;;;8.00;99.90;;;;;;5117637;28;20304;-43
2022/04/08 01:52:31;;;;;;;;;;;8.00;99.90;;;;;;5117630;28;19994;-43
2022/04/08 01:54:56;;;;;;;;;;;8.10;99.90;;;;;;5117326;28;19908;-45
2022/04/08 01:57:23;;;;;;;;;;;8.00;99.90;;;;;;5117648;28;19908;-44
2022/04/08 01:59:50;;;;;;;;;;;8.00;99.90;;;;;;5117283;28;20006;-44
2022/04/08 02:02:17;;;;;;;;;;;8.00;99.90;;;;;;5117506;28;20247;-44
2022/04/08 02:04:42;;;;;;;;;;;8.00;99.90;;;;;;5117826;28;20338;-43
2022/04/08 02:07:08;;;;;;;;;;;7.90;99.90;;;;;;5117331;28;19919;-42
2022/04/08 02:09:33;;;;;;;;;;;8.00;99.90;;;;;;5117057;28;19923;-43
2022/04/08 02:11:59;;;;;;;;;;;7.90;99.90;;;;;;5117021;28;20438;-42
2022/04/08 02:14:25;;;;;;;;;;;7.80;99.90;;;;;;5116895;28;19908;-43
2022/04/08 02:16:50;;;;;;;;;;;7.70;99.90;;;;;;5117166;28;19915;-44
2022/04/08 02:19:16;;;;;;;;;;;7.70;99.90;;;;;;5116850;28;20266;-44
2022/04/08 02:21:42;;;;;;;;;;;7.70;99.90;;;;;;5117140;28;19908;-46
2022/04/08 02:24:08;;;;;;;;;;;7.70;99.90;;;;;;5116702;28;20350;-46
2022/04/08 02:26:33;;;;;;;;;;;7.80;99.90;;;;;;5117018;28;19912;-44
2022/04/08 02:28:59;;;;;;;;;;;7.80;99.90;;;;;;5116580;28;20007;-44
2022/04/08 02:31:24;;;;;;;;;;;7.70;99.90;;;;;;5116894;28;20022;-43
2022/04/08 02:33:50;;;;;;;;;;;7.70;99.90;;;;;;5116940;28;19908;-44
2022/04/08 02:36:15;;;;;;;;;;;7.70;99.90;;;;;;5115620;28;19959;-44
2022/04/08 02:38:41;;;;;;;;;;;7.60;99.90;;;;;;5116884;28;19914;-43
2022/04/08 02:41:06;;;;;;;;;;;7.70;99.90;;;;;;5116389;28;19915;-43
2022/04/08 02:43:32;;;;;;;;;;;7.60;99.90;;;;;;5116396;28;19946;-44
2022/04/08 02:45:57;;;;;;;;;;;7.60;99.90;;;;;;5116612;28;20428;-43
2022/04/08 02:48:23;;;;;;;;;;;7.60;99.90;;;;;;5116164;28;19927;-45
2022/04/08 02:50:48;;;;;;;;;;;7.50;99.90;;;;;;5115778;28;20282;-43
2022/04/08 02:53:14;;;;;;;;;;;7.50;99.90;;;;;;5116236;28;19908;-48
2022/04/08 02:55:39;;;;;;;;;;;7.50;99.90;;;;;;5116825;28;19908;-45
2022/04/08 02:58:05;;;;;;;;;;;7.50;99.90;;;;;;5116477;28;20052;-46
2022/04/08 03:00:30;;;;;;;;;;;7.50;99.90;;;;;;5116417;28;20006;-43
2022/04/08 03:02:56;;;;;;;;;;;7.50;99.90;;;;;;5114988;28;19908;-43
2022/04/08 03:05:22;;;;;;;;;;;7.50;99.90;;;;;;5116157;28;19908;-45
2022/04/08 03:07:47;;;;;;;;;;;7.50;99.90;;;;;;5116100;28;20007;-44
2022/04/08 03:10:13;;;;;;;;;;;7.50;99.90;;;;;;5115882;28;20384;-43
2022/04/08 03:12:39;;;;;;;;;;;7.40;99.90;;;;;;5116072;28;19908;-46
2022/04/08 03:15:05;;;;;;;;;;;7.40;99.90;;;;;;5116047;28;20002;-44
2022/04/08 03:17:30;;;;;;;;;;;7.40;99.90;;;;;;5115721;28;19999;-45
2022/04/08 03:19:56;;;;;;;;;;;7.40;99.90;;;;;;5115931;28;20371;-45
2022/04/08 03:22:22;;;;;;;;;;;7.40;99.90;;;;;;5115855;28;19908;-41
2022/04/08 03:24:48;;;;;;;;;;;7.40;99.90;;;;;;5115832;28;19907;-42
2022/04/08 03:27:14;;;;;;;;;;;7.40;99.90;;;;;;5115568;28;19920;-43
2022/04/08 03:29:40;;;;;;;;;;;7.30;99.90;;;;;;5115271;28;19927;-44
2022/04/08 03:32:05;;;;;;;;;;;7.30;99.90;;;;;;5115505;28;19927;-43
2022/04/08 03:34:31;;;;;;;;;;;7.20;99.90;;;;;;5115910;28;20297;-43
2022/04/08 03:36:57;;;;;;;;;;;7.20;99.90;;;;;;5115499;28;19908;-43
2022/04/08 03:39:22;;;;;;;;;;;7.20;99.90;;;;;;5115528;28;19908;-44
2022/04/08 03:41:48;;;;;;;;;;;7.10;99.90;;;;;;5115477;28;19977;-43
2022/04/08 03:44:14;;;;;;;;;;;7.10;99.90;;;;;;5115787;28;20002;-41
2022/04/08 03:46:41;;;;;;;;;;;7.10;99.90;;;;;;5114871;28;19907;-45
2022/04/08 03:49:12;;;;;;;;;;;7.10;99.90;;;;;;5115174;28;19916;-45
2022/04/08 03:51:38;;;;;;;;;;;7.20;99.90;;;;;;5114925;28;19939;-45
2022/04/08 03:54:03;;;;;;;;;;;7.20;99.90;;;;;;5114778;28;19919;-44
2022/04/08 03:56:29;;;;;;;;;;;7.20;99.90;;;;;;5115253;28;20285;-44
2022/04/08 03:58:54;;;;;;;;;;;7.20;99.90;;;;;;5115518;28;19907;-44
2022/04/08 04:01:20;;;;;;;;;;;7.20;99.90;;;;;;5115179;28;19907;-44
2022/04/08 04:03:45;;;;;;;;;;;7.20;99.90;;;;;;5113754;28;20374;-43
2022/04/08 04:06:11;;;;;;;;;;;7.20;99.90;;;;;;5115064;28;19908;-44
2022/04/08 04:08:37;;;;;;;;;;;7.20;99.90;;;;;;5114987;28;20024;-46
2022/04/08 04:11:02;;;;;;;;;;;7.20;99.90;;;;;;5114954;28;19908;-46
2022/04/08 04:13:28;;;;;;;;;;;7.30;99.90;;;;;;5113310;28;19972;-45
2022/04/08 04:15:53;;;;;;;;;;;7.20;99.90;;;;;;5114337;28;19916;-44
2022/04/08 04:18:19;;;;;;;;;;;7.20;99.90;;;;;;5114599;28;19919;-45
2022/04/08 04:20:44;;;;;;;;;;;7.20;99.90;;;;;;5114448;28;19908;-47
2022/04/08 04:23:10;;;;;;;;;;;7.20;99.90;;;;;;5114435;28;19958;-43
2022/04/08 04:25:35;;;;;;;;;;;7.20;99.90;;;;;;5114762;28;19908;-46
2022/04/08 04:28:01;;;;;;;;;;;7.20;99.90;;;;;;5114144;28;19916;-42
2022/04/08 04:30:27;;;;;;;;;;;7.20;99.90;;;;;;5114682;28;19908;-42
2022/04/08 04:32:53;;;;;;;;;;;7.20;99.90;;;;;;5114484;28;19920;-43
2022/04/08 04:35:19;;;;;;;;;;;7.20;99.90;;;;;;5114281;28;19912;-43
2022/04/08 04:37:45;;;;;;;;;;;7.20;99.90;;;;;;5114170;28;20294;-45
2022/04/08 04:40:10;;;;;;;;;;;7.30;99.90;;;;;;5114135;28;19908;-42
2022/04/08 04:42:36;;;;;;;;;;;7.20;99.90;;;;;;5114548;28;20002;-43
2022/04/08 04:45:02;;;;;;;;;;;7.20;99.90;;;;;;5114071;28;19908;-44
2022/04/08 04:47:27;;;;;;;;;;;7.20;99.90;;;;;;5113999;28;20365;-45
2022/04/08 04:49:53;;;;;;;;;;;7.10;99.90;;;;;;5113990;28;19908;-46
2022/04/08 04:52:18;;;;;;;;;;;7.20;99.90;;;;;;5114296;28;19908;-43
2022/04/08 04:54:44;;;;;;;;;;;7.20;99.90;;;;;;5114097;28;19912;-44
2022/04/08 04:57:09;;;;;;;;;;;7.20;99.90;;;;;;5113929;28;19924;-44
2022/04/08 04:59:35;;;;;;;;;;;7.20;99.90;;;;;;5114137;28;19908;-43
2022/04/08 05:02:00;;;;;;;;;;;7.20;99.90;;;;;;5113459;28;19916;-45
2022/04/08 05:04:26;;;;;;;;;;;7.20;99.90;;;;;;5113679;28;19915;-46
2022/04/08 05:06:51;;;;;;;;;;;7.20;99.90;;;;;;5113482;28;20337;-44
2022/04/08 05:09:17;;;;;;;;;;;7.20;99.90;;;;;;5114053;28;19907;-44
2022/04/08 05:11:42;;;;;;;;;;;7.20;99.90;;;;;;5113555;28;19931;-45
2022/04/08 05:14:08;;;;;;;;;;;7.10;99.90;;;;;;5113894;28;19908;-44
2022/04/08 05:16:33;;;;;;;;;;;7.20;99.90;;;;;;5117880;28;19919;-44
2022/04/08 05:18:59;;;;;;;;;;;7.20;99.90;;;;;;5117268;28;19946;-44
2022/04/08 05:21:25;;;;;;;;;;;7.30;99.90;;;;;;5117634;28;19908;-44
2022/04/08 05:23:50;;;;;;;;;;;7.20;99.90;;;;;;5117692;28;19915;-44
2022/04/08 05:26:16;;;;;;;;;;;7.30;99.90;;;;;;5117239;28;20029;-43
2022/04/08 05:28:41;;;;;;;;;;;7.30;99.90;;;;;;5117293;28;20269;-45
2022/04/08 05:31:07;;;;;;;;;;;7.30;99.90;;;;;;5117606;28;19994;-44
2022/04/08 05:33:32;;;;;;;;;;;7.30;99.90;;;;;;5117749;28;19912;-43
2022/04/08 05:35:58;;;;;;;;;;;7.30;99.90;;;;;;5117135;28;19908;-42
2022/04/08 05:38:23;;;;;;;;;;;7.20;99.90;;;;;;5117187;28;19912;-43
2022/04/08 05:40:49;;;;;;;;;;;7.20;99.90;;;;;;5116456;28;19907;-43
2022/04/08 05:43:15;;;;;;;;;;;7.20;99.90;;;;;;5117177;28;19998;-45
2022/04/08 05:45:41;;;;;;;;;;;7.20;99.90;;;;;;5116883;28;20309;-44
2022/04/08 05:48:07;;;;;;;;;;;7.20;99.90;;;;;;5117056;28;20006;-43
2022/04/08 05:50:33;;;;;;;;;;;7.20;99.90;;;;;;5116869;28;19907;-44
2022/04/08 05:52:58;;;;;;;;;;;7.30;99.90;;;;;;5116895;28;19908;-46
2022/04/08 05:55:24;;;;;;;;;;;7.30;99.90;;;;;;5117262;28;20011;-44
2022/04/08 05:57:53;;;;;;;;;;;7.20;99.90;;;;;;5116590;28;19908;-45
2022/04/08 06:00:20;;;;;;;;;;;7.30;99.90;;;;;;5116594;28;19915;-43
2022/04/08 06:02:47;;;;;;;;;;;7.30;99.90;;;;;;5116744;28;19908;-43
2022/04/08 06:05:18;;;;;;;;;;;7.40;99.90;;;;;;5116364;28;20378;-47
2022/04/08 06:07:47;;;;;;;;;;;7.30;99.90;;;;;;5116587;28;19959;-46
2022/04/08 06:10:13;;;;;;;;;;;7.40;99.90;;;;;;5116445;28;19912;-44
2022/04/08 06:12:39;;;;;;;;;;;7.50;99.90;;;;;;5116295;28;19953;-42
2022/04/08 06:15:05;;;;;;;;;;;7.60;99.90;;;;;;5116198;28;20354;-43
2022/04/08 06:17:37;;;;;;;;;;;7.50;99.90;;;;;;5116472;28;19914;-45
2022/04/08 06:20:03;;;;;;;;;;;7.60;99.90;;;;;;5116201;28;19914;-45
2022/04/08 06:22:29;;;;;;;;;;;7.60;99.90;;;;;;5116026;28;20305;-44
2022/04/08 06:24:54;;;;;;;;;;;7.60;99.90;;;;;;5116363;28;19907;-46
2022/04/08 06:27:20;;;;;;;;;;;7.70;99.90;;;;;;5114854;28;19915;-46
2022/04/08 06:29:45;;;;;;;;;;;7.70;99.90;;;;;;5116120;28;20223;-43
2022/04/08 06:32:11;;;;;;;;;;;7.80;99.90;;;;;;5116172;28;19975;-44
2022/04/08 06:34:36;;;;;;;;;;;7.90;99.90;;;;;;5115870;28;19919;-43
2022/04/08 06:37:02;;;;;;;;;;;8.00;99.90;;;;;;5114492;28;19908;-44
2022/04/08 06:39:27;;;;;;;;;;;8.00;99.90;;;;;;5115787;28;20382;-43
2022/04/08 06:41:53;;;;;;;;;;;8.00;99.90;;;;;;5116338;28;19922;-44
2022/04/08 06:44:18;;;;;;;;;;;8.00;99.90;;;;;;5116047;28;19995;-44
2022/04/08 06:46:44;;;;;;;;;;;8.10;99.90;;;;;;5116024;28;19915;-44
2022/04/08 06:49:09;;;;;;;;;;;8.20;99.90;;;;;;5115817;28;19915;-46
2022/04/08 06:51:35;;;;;;;;;;;8.00;99.90;;;;;;5115924;28;19908;-45
2022/04/08 06:54:00;;;;;;;;;;;8.10;99.90;;;;;;5115915;28;20307;-44
2022/04/08 06:56:27;;;;;;;;;;;8.00;99.90;;;;;;5115892;28;19915;-43
2022/04/08 06:58:52;;;;;;;;;;;8.20;99.90;;;;;;5115355;28;20362;-43
2022/04/08 07:01:18;;;;;;;;;;;8.30;99.90;;;;;;5115490;28;19934;-43
2022/04/08 07:03:43;;;;;;;;;;;8.30;99.90;;;;;;5115379;28;19912;-46
2022/04/08 07:06:09;;;;;;;;;;;8.40;99.90;;;;;;5115487;28;19908;-44
2022/04/08 07:08:34;;;;;;;;;;;8.30;99.90;;;;;;5115537;28;19951;-48
2022/04/08 07:11:00;;;;;;;;;;;8.30;99.90;;;;;;5115497;28;19919;-44
2022/04/08 07:13:25;;;;;;;;;;;8.40;99.90;;;;;;5115274;28;19915;-45
2022/04/08 07:15:51;;;;;;;;;;;8.30;99.90;;;;;;5115078;28;19914;-44
2022/04/08 07:18:16;;;;;;;;;;;8.40;99.90;;;;;;5115162;28;19931;-44
2022/04/08 07:20:42;;;;;;;;;;;8.40;99.90;;;;;;5114988;28;19912;-46
2022/04/08 07:23:07;;;;;;;;;;;8.50;99.90;;;;;;5115415;28;19916;-45
2022/04/08 07:25:33;;;;;;;;;;;8.70;99.90;;;;;;5115339;28;19918;-43
2022/04/08 07:27:58;;;;;;;;;;;8.80;99.90;;;;;;5115258;28;19916;-44
2022/04/08 07:30:25;;;;;;;;;;;8.90;99.90;;;;;;5115076;28;19958;-43
2022/04/08 07:32:52;;;;;;;;;;;8.80;99.90;;;;;;5115574;28;19919;-43
2022/04/08 07:35:18;;;;;;;;;;;8.90;99.90;;;;;;5114883;28;20346;-43
2022/04/08 07:37:43;;;;;;;;;;;9.10;99.90;;;;;;5114376;28;20415;-46
2022/04/08 07:40:10;;;;;;;;;;;9.20;99.90;;;;;;5114404;28;19919;-45
2022/04/08 07:42:35;;;;;;;;;;;9.20;99.90;;;;;;5115105;28;19956;-44
2022/04/08 07:45:02;;;;;;;;;;;9.00;99.90;;;;;;5115091;28;19908;-47
2022/04/08 07:47:28;;;;;;;;;;;8.90;99.90;;;;;;5114537;28;19930;-44
2022/04/08 07:49:57;;;;;;;;;;;9.10;99.90;;;;;;5114518;28;19927;-47
2022/04/08 07:52:23;;;;;;;;;;;9.10;99.90;;;;;;5114965;28;19908;-44
2022/04/08 07:54:49;;;;;;;;;;;9.30;99.90;;;;;;5114753;28;19951;-44
2022/04/08 07:57:14;;;;;;;;;;;9.10;99.90;;;;;;5114987;28;20250;-44
2022/04/08 07:59:40;;;;;;;;;;;9.00;99.90;;;;;;5114877;28;19916;-46
2022/04/08 08:02:05;;;;;;;;;;;8.90;99.90;;;;;;5114548;28;19907;-46
2022/04/08 08:04:31;;;;;;;;;;;8.90;99.90;;;;;;5114456;28;19907;-47
2022/04/08 08:06:56;;;;;;;;;;;8.90;99.90;;;;;;5114630;28;19998;-43
2022/04/08 08:09:22;;;;;;;;;;;9.10;99.90;;;;;;5114699;28;19908;-45
2022/04/08 08:11:47;;;;;;;;;;;9.30;99.90;;;;;;5114181;28;19908;-43
2022/04/08 08:14:13;;;;;;;;;;;9.20;99.90;;;;;;5114254;28;19911;-46
2022/04/08 08:16:38;;;;;;;;;;;9.30;99.90;;;;;;5114547;28;19907;-43
2022/04/08 08:19:04;;;;;;;;;;;9.30;99.90;;;;;;5114213;28;19908;-45
2022/04/08 08:21:29;;;;;;;;;;;9.50;99.90;;;;;;5114274;28;20286;-45
2022/04/08 08:23:55;;;;;;;;;;;9.60;99.90;;;;;;5114235;28;19979;-50
2022/04/08 08:26:21;;;;;;;;;;;9.70;99.90;;;;;;5114310;28;20000;-45
2022/04/08 08:28:46;;;;;;;;;;;9.70;99.90;;;;;;5114005;28;19920;-43
2022/04/08 08:31:12;;;;;;;;;;;9.80;99.90;;;;;;5114104;28;19908;-44
2022/04/08 08:33:39;;;;;;;;;;;9.90;99.90;;;;;;5114086;28;19908;-47
2022/04/08 08:36:06;;;;;;;;;;;9.90;99.90;;;;;;5114023;28;19912;-44
2022/04/08 08:38:31;;;;;;;;;;;9.70;99.90;;;;;;5114150;28;19915;-44
2022/04/08 08:40:57;;;;;;;;;;;9.60;99.90;;;;;;5113839;28;19908;-43
2022/04/08 08:43:23;;;;;;;;;;;9.40;99.90;;;;;;5113975;28;19907;-44
2022/04/08 08:45:49;;;;;;;;;;;9.40;99.90;;;;;;5114231;28;20009;-44
2022/04/08 08:48:17;;;;;;;;;;;9.20;99.90;;;;;;5114037;28;20061;-46
2022/04/08 08:50:46;;;;;;;;;;;9.20;99.90;;;;;;5113083;28;19908;-44
2022/04/08 08:53:15;;;;;;;;;;;9.10;99.90;;;;;;5113842;28;19967;-44
2022/04/08 08:55:41;;;;;;;;;;;9.10;99.90;;;;;;5113548;28;19940;-43
2022/04/08 08:58:07;;;;;;;;;;;9.20;99.90;;;;;;5113483;28;20002;-44
2022/04/08 09:00:35;;;;;;;;;;;9.50;99.90;;;;;;5113500;28;20380;-45
2022/04/08 09:03:01;;;;;;;;;;;9.60;99.90;;;;;;5113598;28;19927;-45
2022/04/08 09:05:26;;;;;;;;;;;9.60;99.90;;;;;;5113220;28;19908;-45
2022/04/08 09:07:53;;;;;;;;;;;9.60;99.90;;;;;;5113367;28;19920;-47
2022/04/08 09:10:23;;;;;;;;;;;9.90;99.90;;;;;;5111950;28;20006;-45
2022/04/08 09:12:52;;;;;;;;;;;10.00;99.90;;;;;;5113719;28;19968;-46
2022/04/08 09:15:17;;;;;;;;;;;10.00;99.90;;;;;;5113423;28;20007;-44
2022/04/08 09:17:43;;;;;;;;;;;9.80;99.90;;;;;;5113254;28;20124;-47
2022/04/08 09:20:10;;;;;;;;;;;9.80;99.90;;;;;;5113504;28;19912;-43
2022/04/08 09:22:36;;;;;;;;;;;9.60;99.90;;;;;;5113583;28;20466;-46
2022/04/08 09:25:10;;;;;;;;;;;9.60;99.90;;;;;;5112051;28;19912;-45
2022/04/08 09:27:39;;;;;;;;;;;9.80;99.90;;;;;;5113339;28;19915;-46
2022/04/08 09:30:07;;;;;;;;;;;9.70;99.90;;;;;;5113565;28;19908;-44
2022/04/08 09:32:33;;;;;;;;;;;10.20;99.90;;;;;;5112900;28;19920;-47
2022/04/08 09:34:58;;;;;;;;;;;10.60;99.90;;;;;;5113250;28;19915;-46
2022/04/08 09:37:24;;;;;;;;;;;10.90;99.90;;;;;;5113391;28;20262;-46
2022/04/08 09:40:04;;;;;;;;;;;11.30;99.90;;;;;;5112993;28;19922;-43
2022/04/08 09:42:42;;;;;;;;;;;11.40;99.90;;;;;;5113256;28;19908;-45
2022/04/08 09:45:09;;;;;;;;;;;11.50;99.90;;;;;;5113245;28;20374;-44
2022/04/08 09:47:34;;;;;;;;;;;11.50;99.90;;;;;;5112563;28;19943;-46
2022/04/08 09:50:00;;;;;;;;;;;11.30;99.90;;;;;;5112938;28;19908;-44
2022/04/08 09:52:26;;;;;;;;;;;11.70;99.90;;;;;;5113122;28;19908;-44
2022/04/08 09:54:52;;;;;;;;;;;11.90;99.90;;;;;;5112795;28;20019;-47
2022/04/08 09:57:18;;;;;;;;;;;12.10;99.90;;;;;;5113145;28;19930;-47
2022/04/08 09:59:44;;;;;;;;;;;12.50;99.90;;;;;;5112917;28;20378;-43
2022/04/08 10:02:12;;;;;;;;;;;12.60;99.90;;;;;;5116838;28;19958;-43
2022/04/08 10:04:38;;;;;;;;;;;12.60;99.90;;;;;;5116637;28;19907;-46
2022/04/08 10:07:05;;;;;;;;;;;12.80;99.90;;;;;;5116247;28;19908;-44
2022/04/08 10:09:32;;;;;;;;;;;12.80;99.90;;;;;;5116709;28;19908;-45
2022/04/08 10:12:07;;;;;;;;;;;12.60;99.90;;;;;;5116520;28;19953;-47
2022/04/08 10:14:47;;;;;;;;;;;12.70;99.90;;;;;;5116629;28;19907;-45
2022/04/08 10:17:14;;;;;;;;;;;12.80;99.90;;;;;;5116252;28;20346;-45
2022/04/08 10:19:39;;;;;;;;;;;13.00;99.90;;;;;;5116697;28;19961;-44
2022/04/08 10:22:14;;;;;;;;;;;13.30;99.90;;;;;;5116197;28;20273;-46
2022/04/08 10:24:39;;;;;;;;;;;13.10;99.90;;;;;;5115838;28;19931;-47
2022/04/08 10:27:09;;;;;;;;;;;13.30;99.90;;;;;;5115314;28;19908;-46
2022/04/08 10:29:35;;;;;;;;;;;13.00;99.90;;;;;;5114773;28;19912;-46
2022/04/08 10:32:02;;;;;;;;;;;13.30;99.90;;;;;;5115828;28;20274;-44
2022/04/08 10:34:32;;;;;;;;;;;13.10;99.90;;;;;;5115895;28;19969;-44
2022/04/08 10:36:58;;;;;;;;;;;13.10;99.90;;;;;;5114834;28;19908;-46
2022/04/08 10:39:23;;;;;;;;;;;13.00;99.90;;;;;;5115528;28;19915;-46
2022/04/08 10:42:08;;;;;;;;;;;12.70;99.90;;;;;;5115520;28;19999;-47
2022/04/08 10:44:35;;;;;;;;;;;12.40;99.90;;;;;;5115947;28;19911;-43
2022/04/08 10:47:02;;;;;;;;;;;12.20;99.90;;;;;;5115368;28;19995;-46
2022/04/08 10:49:28;;;;;;;;;;;12.00;99.90;;;;;;5115352;28;20347;-44
2022/04/08 10:51:53;;;;;;;;;;;11.70;99.90;;;;;;5115556;28;20053;-45
2022/04/08 10:54:20;;;;;;;;;;;11.70;99.90;;;;;;5115790;28;19912;-43
2022/04/08 10:56:58;;;;;;;;;;;11.60;99.90;;;;;;5115588;28;19908;-44
2022/04/08 10:59:27;;;;;;;;;;;11.60;99.90;;;;;;5115700;28;19908;-47
2022/04/08 11:01:56;;;;;;;;;;;11.40;99.90;;;;;;5115337;28;19953;-43
2022/04/08 11:04:26;;;;;;;;;;;11.30;99.90;;;;;;5115080;28;19908;-45
2022/04/08 11:06:51;;;;;;;;;;;11.40;99.90;;;;;;5115095;28;20447;-44
2022/04/08 11:09:17;;;;;;;;;;;11.50;99.90;;;;;;5115335;28;20014;-44
2022/04/08 11:11:43;;;;;;;;;;;11.60;99.90;;;;;;5115430;28;19951;-44
2022/04/08 11:14:09;;;;;;;;;;;11.80;99.90;;;;;;5115189;28;19919;-47
2022/04/08 11:16:36;;;;;;;;;;;11.90;99.90;;;;;;5115417;28;19921;-49
2022/04/08 11:19:05;;;;;;;;;;;12.10;99.90;;;;;;5115152;28;19931;-44
2022/04/08 11:21:33;;;;;;;;;;;12.40;99.90;;;;;;5115209;28;19915;-43
2022/04/08 11:24:02;;;;;;;;;;;12.60;99.90;;;;;;5115097;28;19915;-44
2022/04/08 11:26:28;;;;;;;;;;;12.60;99.90;;;;;;5115089;28;19908;-45
2022/04/08 11:28:55;;;;;;;;;;;12.70;99.90;;;;;;5114856;28;20358;-45
2022/04/08 11:31:20;;;;;;;;;;;12.80;99.90;;;;;;5114995;28;19920;-45
2022/04/08 11:33:47;;;;;;;;;;;13.00;99.90;;;;;;5115230;28;19908;-48
2022/04/08 11:36:12;;;;;;;;;;;13.00;99.90;;;;;;5114400;28;19908;-46
2022/04/08 11:38:38;;;;;;;;;;;13.10;99.90;;;;;;5114681;28;19919;-45
2022/04/08 11:41:04;;;;;;;;;;;13.20;99.90;;;;;;5114724;28;20271;-44
2022/04/08 11:43:29;;;;;;;;;;;13.20;99.90;;;;;;5113785;28;19908;-46
2022/04/08 11:45:55;;;;;;;;;;;13.00;99.90;;;;;;5115016;28;19998;-45
2022/04/08 11:48:23;;;;;;;;;;;12.90;99.90;;;;;;5114641;28;19916;-47
2022/04/08 11:50:49;;;;;;;;;;;12.80;99.90;;;;;;5114866;28;19908;-46
2022/04/08 11:53:18;;;;;;;;;;;12.90;99.90;;;;;;5114661;28;19912;-45
2022/04/08 11:55:54;;;;;;;;;;;13.00;99.90;;;;;;5114656;28;19913;-45
2022/04/08 11:58:19;;;;;;;;;;;13.20;99.90;;;;;;5113239;28;20278;-44
2022/04/08 12:00:49;;;;;;;;;;;13.20;99.90;;;;;;5113774;28;20346;-46
2022/04/08 12:03:21;;;;;;;;;;;13.30;99.90;;;;;;5113981;28;19911;-47
2022/04/08 12:05:48;;;;;;;;;;;13.30;99.90;;;;;;5113128;28;19907;-46
2022/04/08 12:08:13;;;;;;;;;;;13.40;99.90;;;;;;5113908;28;19915;-46
2022/04/08 12:10:39;;;;;;;;;;;13.50;99.90;;;;;;5114208;28;19915;-43
2022/04/08 12:13:37;;;;;;;;;;;13.60;99.90;;;;;;5114391;28;19908;-44
2022/04/08 12:16:08;;;;;;;;;;;13.90;99.90;;;;;;5079615;28;20291;-43
2022/04/08 12:18:33;;;;;;;;;;;14.20;99.90;;;;;;5114168;28;19908;-47
2022/04/08 12:21:00;;;;;;;;;;;14.40;99.90;;;;;;5114154;28;19994;-44
2022/04/08 12:23:26;;;;;;;;;;;14.60;99.90;;;;;;5113921;28;19908;-45
2022/04/08 12:25:53;;;;;;;;;;;14.60;99.90;;;;;;5113697;28;19990;-44
2022/04/08 12:28:22;;;;;;;;;;;14.70;99.90;;;;;;5114058;28;19916;-46
2022/04/08 12:30:47;;;;;;;;;;;15.00;99.90;;;;;;5113664;28;20289;-46
2022/04/08 12:33:13;;;;;;;;;;;15.10;99.90;;;;;;5114085;28;19920;-45
2022/04/08 12:35:38;;;;;;;;;;;15.20;99.90;;;;;;5112938;28;19915;-48
2022/04/08 12:38:04;;;;;;;;;;;15.10;99.90;;;;;;5114604;28;19912;-47
2022/04/08 12:40:33;;;;;;;;;;;15.10;99.90;;;;;;5113986;28;19990;-44
2022/04/08 12:43:00;;;;;;;;;;;14.90;99.90;;;;;;5114000;28;20080;-44
2022/04/08 12:45:27;;;;;;;;;;;14.80;99.90;;;;;;5114133;28;19908;-44
2022/04/08 12:47:53;;;;;;;;;;;14.70;99.90;;;;;;5112582;28;19915;-44
2022/04/08 12:50:18;;;;;;;;;;;14.70;99.90;;;;;;5113809;28;20414;-45
2022/04/08 12:52:44;;;;;;;;;;;14.80;99.90;;;;;;5113800;28;19912;-43
2022/04/08 12:55:09;;;;;;;;;;;15.00;99.90;;;;;;5113159;28;19929;-44
2022/04/08 12:57:35;;;;;;;;;;;15.30;99.90;;;;;;5113818;28;19912;-46
2022/04/08 13:00:01;;;;;;;;;;;15.20;99.90;;;;;;5112324;28;19946;-45
2022/04/08 13:02:27;;;;;;;;;;;15.30;99.90;;;;;;5113540;28;19915;-44
2022/04/08 13:04:52;;;;;;;;;;;15.50;99.90;;;;;;5113476;28;19908;-45
2022/04/08 13:07:18;;;;;;;;;;;15.50;99.90;;;;;;5113340;28;19908;-44
2022/04/08 13:09:44;;;;;;;;;;;15.50;99.90;;;;;;5113210;28;19911;-45
2022/04/08 13:12:10;;;;;;;;;;;15.40;99.90;;;;;;5113826;28;20002;-43
2022/04/08 13:14:36;;;;;;;;;;;15.30;99.90;;;;;;5111849;28;20002;-46
2022/04/08 13:17:02;;;;;;;;;;;14.90;99.90;;;;;;5113740;28;20006;-47
2022/04/08 13:19:27;;;;;;;;;;;14.80;99.90;;;;;;5113356;28;19914;-47
2022/04/08 13:21:53;;;;;;;;;;;14.60;99.90;;;;;;5113611;28;19908;-47
2022/04/08 13:24:19;;;;;;;;;;;14.30;99.90;;;;;;5113557;28;19908;-45
2022/04/08 13:26:45;;;;;;;;;;;14.20;99.90;;;;;;5113234;28;20058;-45
2022/04/08 13:29:10;;;;;;;;;;;14.20;99.90;;;;;;5113267;28;20033;-45
2022/04/08 13:31:37;;;;;;;;;;;14.10;99.90;;;;;;5113758;28;19998;-43
2022/04/08 13:34:03;;;;;;;;;;;14.10;99.90;;;;;;5113351;28;19915;-44
2022/04/08 13:36:29;;;;;;;;;;;14.00;99.90;;;;;;5115426;28;19908;-44
2022/04/08 13:38:54;;;;;;;;;;;14.00;99.90;;;;;;5117330;28;19991;-45
2022/04/08 13:41:20;;;;;;;;;;;14.10;99.90;;;;;;5116955;28;20210;-46
2022/04/08 13:43:46;;;;;;;;;;;14.20;99.90;;;;;;5116789;28;20363;-43
2022/04/08 13:46:11;;;;;;;;;;;14.30;99.90;;;;;;5115767;28;20335;-45
2022/04/08 13:48:37;;;;;;;;;;;14.50;99.90;;;;;;5116579;28;20312;-44
2022/04/08 13:51:02;;;;;;;;;;;14.70;99.90;;;;;;5116682;28;19908;-43
2022/04/08 13:53:28;;;;;;;;;;;14.80;99.90;;;;;;5116722;28;19908;-44
2022/04/08 13:55:53;;;;;;;;;;;14.70;99.90;;;;;;5116914;28;19912;-44
2022/04/08 13:58:19;;;;;;;;;;;14.80;99.90;;;;;;5116859;28;19943;-45
2022/04/08 14:00:44;;;;;;;;;;;14.80;99.90;;;;;;5116717;28;19952;-46
2022/04/08 14:03:10;;;;;;;;;;;14.80;99.90;;;;;;5116609;28;19912;-44
2022/04/08 14:05:35;;;;;;;;;;;14.80;99.90;;;;;;5116744;28;19908;-47
2022/04/08 14:08:01;;;;;;;;;;;14.90;99.90;;;;;;5116490;28;19923;-45
2022/04/08 14:10:27;;;;;;;;;;;15.00;99.90;;;;;;5116733;28;19908;-44
2022/04/08 14:12:53;;;;;;;;;;;15.10;99.90;;;;;;5116224;28;19908;-45
2022/04/08 14:15:18;;;;;;;;;;;15.20;99.90;;;;;;5116362;28;19914;-47
2022/04/08 14:17:44;;;;;;;;;;;15.20;99.90;;;;;;5115252;28;19912;-45
2022/04/08 14:20:10;;;;;;;;;;;15.30;99.90;;;;;;5116439;28;19908;-43